sensor_id;sensor_type;location;lat;lon;timestamp;pressure;altitude;pressure_sealevel;temperature;humidity
24858;BME280;12935;50.782;6.074;2023-02-22T00:01:19;99324.06;;;4.92;100.00
24858;BME280;12935;50.782;6.074;2023-02-22T00:04:00;99325.09;;;4.84;100.00
24858;BME280;12935;50.782;6.074;2023-02-22T00:06:25;99328.56;;;4.85;100.00
24858;BME280;12935;50.782;6.074;2023-02-22T00:08:51;99327.78;;;4.84;100.00
24858;BME280;12935;50.782;6.074;2023-02-22T00:11:17;99323.97;;;4.89;100.00
24858;BME280;12935;50.782;6.074;2023-02-22T00:13:43;99319.34;;;4.89;100.00
24858;BME280;12935;50.782;6.074;2023-02-22T00:16:16;99317.78;;;4.88;100.00
24858;BME280;12935;50.782;6.074;2023-02-22T00:18:41;99322.06;;;4.89;100.00
24858;BME280;12935;50.782;6.074;2023-02-22T00:21:09;99321.28;;;4.89;100.00
24858;BME280;12935;50.782;6.074;2023-02-22T00:23:35;99318.31;;;4.75;100.00
24858;BME280;12935;50.782;6.074;2023-02-22T00:26:04;99323.28;;;4.31;100.00
24858;BME280;12935;50.782;6.074;2023-02-22T00:28:30;99317.75;;;3.88;100.00
24858;BME280;12935;50.782;6.074;2023-02-22T00:30:56;99317.81;;;3.57;100.00
24858;BME280;12935;50.782;6.074;2023-02-22T00:33:22;99319.34;;;3.23;100.00
24858;BME280;12935;50.782;6.074;2023-02-22T00:35:47;99311.31;;;3.11;100.00
24858;BME280;12935;50.782;6.074;2023-02-22T00:38:15;99307.50;;;2.96;100.00
24858;BME280;12935;50.782;6.074;2023-02-22T00:40:41;99308.59;;;2.79;100.00
24858;BME280;12935;50.782;6.074;2023-02-22T00:43:07;99303.91;;;2.76;100.00
24858;BME280;12935;50.782;6.074;2023-02-22T00:45:34;99300.22;;;2.85;100.00
24858;BME280;12935;50.782;6.074;2023-02-22T00:48:00;99299.91;;;3.02;100.00
24858;BME280;12935;50.782;6.074;2023-02-22T00:50:28;99293.28;;;2.99;100.00
24858;BME280;12935;50.782;6.074;2023-02-22T00:52:54;99287.72;;;2.92;100.00
24858;BME280;12935;50.782;6.074;2023-02-22T00:55:28;99283.97;;;2.81;100.00
24858;BME280;12935;50.782;6.074;2023-02-22T00:57:54;99288.94;;;2.79;100.00
24858;BME280;12935;50.782;6.074;2023-02-22T01:00:41;99296.16;;;2.75;100.00
24858;BME280;12935;50.782;6.074;2023-02-22T01:03:08;99291.44;;;2.72;100.00
24858;BME280;12935;50.782;6.074;2023-02-22T01:05:35;99291.19;;;2.77;100.00
24858;BME280;12935;50.782;6.074;2023-02-22T01:08:02;99294.06;;;3.00;100.00
24858;BME280;12935;50.782;6.074;2023-02-22T01:10:31;99285.81;;;3.08;100.00
24858;BME280;12935;50.782;6.074;2023-02-22T01:12:58;99276.69;;;3.13;100.00
24858;BME280;12935;50.782;6.074;2023-02-22T01:15:26;99286.34;;;3.14;100.00
24858;BME280;12935;50.782;6.074;2023-02-22T01:17:53;99275.34;;;3.07;100.00
24858;BME280;12935;50.782;6.074;2023-02-22T01:20:20;99277.88;;;3.15;100.00
24858;BME280;12935;50.782;6.074;2023-02-22T01:22:48;99283.03;;;3.05;100.00
24858;BME280;12935;50.782;6.074;2023-02-22T01:25:20;99265.16;;;2.85;100.00
24858;BME280;12935;50.782;6.074;2023-02-22T01:27:45;99272.47;;;2.84;100.00
24858;BME280;12935;50.782;6.074;2023-02-22T01:30:12;99275.94;;;2.85;100.00
24858;BME280;12935;50.782;6.074;2023-02-22T01:32:40;99278.28;;;2.70;100.00
24858;BME280;12935;50.782;6.074;2023-02-22T01:35:10;99286.34;;;2.55;100.00
24858;BME280;12935;50.782;6.074;2023-02-22T01:37:38;99272.16;;;2.42;100.00
24858;BME280;12935;50.782;6.074;2023-02-22T01:40:05;99275.09;;;2.37;100.00
24858;BME280;12935;50.782;6.074;2023-02-22T01:42:33;99264.13;;;2.30;100.00
24858;BME280;12935;50.782;6.074;2023-02-22T01:50:47;99262.34;;;2.22;100.00
24858;BME280;12935;50.782;6.074;2023-02-22T01:53:17;99261.06;;;2.16;100.00
24858;BME280;12935;50.782;6.074;2023-02-22T01:55:44;99266.09;;;2.17;100.00
24858;BME280;12935;50.782;6.074;2023-02-22T01:58:12;99275.78;;;2.06;100.00
24858;BME280;12935;50.782;6.074;2023-02-22T02:00:38;99264.13;;;2.02;100.00
24858;BME280;12935;50.782;6.074;2023-02-22T02:03:08;99268.41;;;1.91;100.00
24858;BME280;12935;50.782;6.074;2023-02-22T02:05:36;99264.25;;;1.93;100.00
24858;BME280;12935;50.782;6.074;2023-02-22T02:08:11;99262.13;;;1.99;100.00
24858;BME280;12935;50.782;6.074;2023-02-22T02:10:41;99261.16;;;2.19;100.00
24858;BME280;12935;50.782;6.074;2023-02-22T02:13:07;99255.41;;;2.21;100.00
24858;BME280;12935;50.782;6.074;2023-02-22T02:15:32;99261.16;;;2.19;100.00
24858;BME280;12935;50.782;6.074;2023-02-22T02:18:05;99253.53;;;2.09;100.00
24858;BME280;12935;50.782;6.074;2023-02-22T02:42:59;99271.28;;;2.38;100.00
24858;BME280;12935;50.782;6.074;2023-02-22T02:45:34;99267.03;;;2.53;100.00
24858;BME280;12935;50.782;6.074;2023-02-22T02:48:02;99268.13;;;2.64;100.00
24858;BME280;12935;50.782;6.074;2023-02-22T02:50:35;99268.47;;;2.78;100.00
24858;BME280;12935;50.782;6.074;2023-02-22T02:53:04;99262.75;;;2.79;100.00
24858;BME280;12935;50.782;6.074;2023-02-22T02:55:33;99263.34;;;2.73;100.00
24858;BME280;12935;50.782;6.074;2023-02-22T02:58:05;99261.59;;;2.80;100.00
24858;BME280;12935;50.782;6.074;2023-02-22T03:00:34;99268.22;;;2.83;100.00
24858;BME280;12935;50.782;6.074;2023-02-22T03:06:06;99251.16;;;2.95;100.00
24858;BME280;12935;50.782;6.074;2023-02-22T03:08:42;99251.66;;;3.00;100.00
24858;BME280;12935;50.782;6.074;2023-02-22T03:14:22;99246.25;;;3.16;100.00
24858;BME280;12935;50.782;6.074;2023-02-22T03:17:33;99240.94;;;3.20;100.00
24858;BME280;12935;50.782;6.074;2023-02-22T03:20:00;99240.25;;;3.23;100.00
24858;BME280;12935;50.782;6.074;2023-02-22T03:22:36;99235.72;;;3.27;100.00
24858;BME280;12935;50.782;6.074;2023-02-22T03:25:13;99239.03;;;3.20;100.00
24858;BME280;12935;50.782;6.074;2023-02-22T03:27:46;99230.69;;;3.09;100.00
24858;BME280;12935;50.782;6.074;2023-02-22T03:30:26;99234.19;;;3.10;100.00
24858;BME280;12935;50.782;6.074;2023-02-22T03:32:59;99231.38;;;3.22;100.00
24858;BME280;12935;50.782;6.074;2023-02-22T03:35:31;99229.97;;;3.28;100.00
24858;BME280;12935;50.782;6.074;2023-02-22T03:38:01;99224.84;;;3.23;100.00
24858;BME280;12935;50.782;6.074;2023-02-22T03:40:32;99223.53;;;3.17;100.00
24858;BME280;12935;50.782;6.074;2023-02-22T03:43:18;99223.63;;;3.21;100.00
24858;BME280;12935;50.782;6.074;2023-02-22T03:45:47;99220.34;;;3.11;100.00
24858;BME280;12935;50.782;6.074;2023-02-22T03:48:35;99214.59;;;3.13;100.00
24858;BME280;12935;50.782;6.074;2023-02-22T03:51:03;99207.84;;;3.23;100.00
24858;BME280;12935;50.782;6.074;2023-02-22T03:53:31;99213.59;;;3.21;100.00
24858;BME280;12935;50.782;6.074;2023-02-22T03:55:58;99213.59;;;3.21;100.00
24858;BME280;12935;50.782;6.074;2023-02-22T03:58:26;99204.81;;;3.24;100.00
24858;BME280;12935;50.782;6.074;2023-02-22T04:00:55;99202.25;;;3.31;100.00
24858;BME280;12935;50.782;6.074;2023-02-22T04:03:21;99201.41;;;3.27;100.00
24858;BME280;12935;50.782;6.074;2023-02-22T04:05:47;99200.19;;;3.25;100.00
24858;BME280;12935;50.782;6.074;2023-02-22T04:08:13;99206.34;;;3.41;100.00
24858;BME280;12935;50.782;6.074;2023-02-22T04:10:38;99201.97;;;3.36;100.00
24858;BME280;12935;50.782;6.074;2023-02-22T04:13:04;99202.06;;;3.40;100.00
24858;BME280;12935;50.782;6.074;2023-02-22T04:15:31;99200.72;;;3.49;100.00
24858;BME280;12935;50.782;6.074;2023-02-22T04:17:56;99196.88;;;3.50;100.00
24858;BME280;12935;50.782;6.074;2023-02-22T04:20:22;99193.13;;;3.55;100.00
24858;BME280;12935;50.782;6.074;2023-02-22T04:22:50;99183.97;;;3.60;100.00
24858;BME280;12935;50.782;6.074;2023-02-22T04:25:17;99189.44;;;3.63;100.00
24858;BME280;12935;50.782;6.074;2023-02-22T04:27:43;99175.63;;;3.49;100.00
24858;BME280;12935;50.782;6.074;2023-02-22T04:30:09;99189.69;;;3.39;100.00
24858;BME280;12935;50.782;6.074;2023-02-22T04:32:34;99185.50;;;3.41;100.00
24858;BME280;12935;50.782;6.074;2023-02-22T04:35:00;99186.94;;;3.55;100.00
24858;BME280;12935;50.782;6.074;2023-02-22T04:37:25;99175.28;;;3.50;100.00
24858;BME280;12935;50.782;6.074;2023-02-22T04:39:50;99178.03;;;3.35;100.00
24858;BME280;12935;50.782;6.074;2023-02-22T04:42:15;99177.91;;;3.47;100.00
24858;BME280;12935;50.782;6.074;2023-02-22T04:44:41;99171.19;;;3.57;100.00
24858;BME280;12935;50.782;6.074;2023-02-22T04:47:06;99162.00;;;3.61;100.00
24858;BME280;12935;50.782;6.074;2023-02-22T04:49:31;99161.72;;;3.66;100.00
24858;BME280;12935;50.782;6.074;2023-02-22T04:51:56;99161.44;;;3.71;100.00
24858;BME280;12935;50.782;6.074;2023-02-22T04:54:22;99152.97;;;3.73;100.00
24858;BME280;12935;50.782;6.074;2023-02-22T04:56:47;99157.25;;;3.74;100.00
24858;BME280;12935;50.782;6.074;2023-02-22T04:59:13;99155.03;;;3.79;100.00
24858;BME280;12935;50.782;6.074;2023-02-22T05:01:38;99152.19;;;3.53;100.00
24858;BME280;12935;50.782;6.074;2023-02-22T05:04:05;99149.25;;;3.23;100.00
24858;BME280;12935;50.782;6.074;2023-02-22T05:06:30;99146.88;;;2.87;100.00
24858;BME280;12935;50.782;6.074;2023-02-22T05:08:56;99140.13;;;2.77;100.00
24858;BME280;12935;50.782;6.074;2023-02-22T05:11:21;99139.13;;;2.85;100.00
24858;BME280;12935;50.782;6.074;2023-02-22T05:13:47;99137.75;;;2.91;100.00
24858;BME280;12935;50.782;6.074;2023-02-22T05:16:12;99130.47;;;2.76;100.00
24858;BME280;12935;50.782;6.074;2023-02-22T05:18:38;99135.41;;;2.90;100.00
24858;BME280;12935;50.782;6.074;2023-02-22T05:21:03;99133.00;;;3.04;100.00
24858;BME280;12935;50.782;6.074;2023-02-22T05:23:29;99127.97;;;3.02;100.00
24858;BME280;12935;50.782;6.074;2023-02-22T05:25:54;99129.44;;;3.00;100.00
24858;BME280;12935;50.782;6.074;2023-02-22T05:28:19;99120.78;;;2.91;100.00
24858;BME280;12935;50.782;6.074;2023-02-22T05:30:45;99127.38;;;2.93;100.00
24858;BME280;12935;50.782;6.074;2023-02-22T05:33:11;99126.13;;;3.06;100.00
24858;BME280;12935;50.782;6.074;2023-02-22T05:35:37;99113.50;;;3.10;100.00
24858;BME280;12935;50.782;6.074;2023-02-22T05:38:03;99117.25;;;3.06;100.00
24858;BME280;12935;50.782;6.074;2023-02-22T05:40:29;99115.59;;;3.01;100.00
24858;BME280;12935;50.782;6.074;2023-02-22T05:42:55;99104.09;;;3.04;100.00
24858;BME280;12935;50.782;6.074;2023-02-22T05:45:23;99116.97;;;3.11;100.00
24858;BME280;12935;50.782;6.074;2023-02-22T05:47:49;99110.28;;;3.05;100.00
24858;BME280;12935;50.782;6.074;2023-02-22T05:50:15;99108.44;;;3.09;100.00
24858;BME280;12935;50.782;6.074;2023-02-22T05:52:41;99097.88;;;3.20;100.00
24858;BME280;12935;50.782;6.074;2023-02-22T05:55:08;99096.03;;;3.24;100.00
24858;BME280;12935;50.782;6.074;2023-02-22T05:57:34;99087.66;;;3.29;100.00
24858;BME280;12935;50.782;6.074;2023-02-22T05:59:59;99072.78;;;3.19;100.00
24858;BME280;12935;50.782;6.074;2023-02-22T06:02:25;99087.59;;;3.25;100.00
24858;BME280;12935;50.782;6.074;2023-02-22T06:04:50;99087.31;;;3.30;100.00
24858;BME280;12935;50.782;6.074;2023-02-22T06:07:15;99093.41;;;3.27;100.00
24858;BME280;12935;50.782;6.074;2023-02-22T06:09:41;99090.22;;;3.41;100.00
24858;BME280;12935;50.782;6.074;2023-02-22T06:12:07;99088.06;;;3.50;100.00
24858;BME280;12935;50.782;6.074;2023-02-22T06:14:32;99088.16;;;3.53;100.00
24858;BME280;12935;50.782;6.074;2023-02-22T06:16:58;99083.16;;;3.56;100.00
24858;BME280;12935;50.782;6.074;2023-02-22T06:19:25;99083.38;;;3.66;100.00
24858;BME280;12935;50.782;6.074;2023-02-22T06:21:52;99083.00;;;3.68;100.00
24858;BME280;12935;50.782;6.074;2023-02-22T06:24:18;99082.38;;;3.55;100.00
24858;BME280;12935;50.782;6.074;2023-02-22T06:26:43;99082.53;;;3.43;100.00
24858;BME280;12935;50.782;6.074;2023-02-22T06:29:09;99072.22;;;3.48;100.00
24858;BME280;12935;50.782;6.074;2023-02-22T06:31:34;99070.53;;;3.60;100.00
24858;BME280;12935;50.782;6.074;2023-02-22T06:34:00;99067.09;;;3.63;100.00
24858;BME280;12935;50.782;6.074;2023-02-22T06:36:26;99069.94;;;3.50;100.00
24858;BME280;12935;50.782;6.074;2023-02-22T06:38:51;99070.44;;;3.56;100.00
24858;BME280;12935;50.782;6.074;2023-02-22T06:41:16;99075.78;;;3.52;100.00
24858;BME280;12935;50.782;6.074;2023-02-22T06:43:41;99073.34;;;3.47;100.00
24858;BME280;12935;50.782;6.074;2023-02-22T06:46:10;99062.34;;;3.56;100.00
24858;BME280;12935;50.782;6.074;2023-02-22T06:48:37;99067.09;;;3.63;100.00
24858;BME280;12935;50.782;6.074;2023-02-22T06:51:03;99073.22;;;3.60;100.00
24858;BME280;12935;50.782;6.074;2023-02-22T06:53:28;99070.38;;;3.52;100.00
24858;BME280;12935;50.782;6.074;2023-02-22T06:55:54;99067.75;;;3.56;100.00
24858;BME280;12935;50.782;6.074;2023-02-22T06:58:19;99065.94;;;3.64;100.00
24858;BME280;12935;50.782;6.074;2023-02-22T07:00:44;99064.34;;;3.59;100.00
24858;BME280;12935;50.782;6.074;2023-02-22T07:03:10;99065.56;;;3.62;100.00
24858;BME280;12935;50.782;6.074;2023-02-22T07:05:35;99062.34;;;3.56;100.00
24858;BME280;12935;50.782;6.074;2023-02-22T07:08:04;99067.94;;;3.47;100.00
24858;BME280;12935;50.782;6.074;2023-02-22T07:10:32;99067.31;;;3.35;100.00
24858;BME280;12935;50.782;6.074;2023-02-22T07:12:58;99074.44;;;3.24;100.00
24858;BME280;12935;50.782;6.074;2023-02-22T07:15:25;99079.69;;;3.16;100.00
24858;BME280;12935;50.782;6.074;2023-02-22T07:17:51;99080.03;;;3.15;100.00
24858;BME280;12935;50.782;6.074;2023-02-22T07:20:17;99073.22;;;3.40;100.00
24858;BME280;12935;50.782;6.074;2023-02-22T07:22:44;99073.66;;;3.62;100.00
24858;BME280;12935;50.782;6.074;2023-02-22T07:25:10;99075.41;;;3.73;100.00
24858;BME280;12935;50.782;6.074;2023-02-22T07:27:37;99075.78;;;3.95;100.00
24858;BME280;12935;50.782;6.074;2023-02-22T07:30:05;99071.41;;;4.09;100.00
24858;BME280;12935;50.782;6.074;2023-02-22T07:32:30;99069.31;;;4.22;100.00
24858;BME280;12935;50.782;6.074;2023-02-22T07:34:55;99066.47;;;4.38;100.00
24858;BME280;12935;50.782;6.074;2023-02-22T07:37:21;99070.25;;;4.33;100.00
24858;BME280;12935;50.782;6.074;2023-02-22T07:39:46;99077.53;;;4.29;100.00
24858;BME280;12935;50.782;6.074;2023-02-22T07:42:11;99073.09;;;4.17;100.00
24858;BME280;12935;50.782;6.074;2023-02-22T07:44:37;99080.41;;;4.17;100.00
24858;BME280;12935;50.782;6.074;2023-02-22T07:47:03;99086.22;;;4.42;100.00
24858;BME280;12935;50.782;6.074;2023-02-22T07:49:28;99086.41;;;4.52;100.00
24858;BME280;12935;50.782;6.074;2023-02-22T07:51:53;99079.84;;;4.53;100.00
24858;BME280;12935;50.782;6.074;2023-02-22T07:54:19;99077.88;;;4.77;100.00
24858;BME280;12935;50.782;6.074;2023-02-22T07:56:47;99092.47;;;4.72;100.00
24858;BME280;12935;50.782;6.074;2023-02-22T07:59:13;99086.16;;;4.87;100.00
24858;BME280;12935;50.782;6.074;2023-02-22T08:01:39;99074.75;;;5.05;100.00
24858;BME280;12935;50.782;6.074;2023-02-22T08:04:05;99079.63;;;5.22;100.00
24858;BME280;12935;50.782;6.074;2023-02-22T08:06:30;99065.88;;;5.34;100.00
24858;BME280;12935;50.782;6.074;2023-02-22T08:08:56;99066.03;;;5.48;100.00
24858;BME280;12935;50.782;6.074;2023-02-22T08:11:23;99064.53;;;5.54;100.00
24858;BME280;12935;50.782;6.074;2023-02-22T08:13:48;99068.78;;;5.52;100.00
24858;BME280;12935;50.782;6.074;2023-02-22T08:16:13;99067.88;;;5.74;100.00
24858;BME280;12935;50.782;6.074;2023-02-22T08:18:39;99064.09;;;5.86;100.00
24858;BME280;12935;50.782;6.074;2023-02-22T08:21:05;99070.06;;;5.95;100.00
24858;BME280;12935;50.782;6.074;2023-02-22T08:23:30;99066.31;;;6.10;100.00
24858;BME280;12935;50.782;6.074;2023-02-22T08:26:06;99063.41;;;6.33;100.00
24858;BME280;12935;50.782;6.074;2023-02-22T08:28:31;99063.53;;;6.51;100.00
24858;BME280;12935;50.782;6.074;2023-02-22T08:30:57;99060.13;;;6.64;100.00
24858;BME280;12935;50.782;6.074;2023-02-22T08:33:22;99045.09;;;6.78;100.00
24858;BME280;12935;50.782;6.074;2023-02-22T08:35:48;99060.72;;;6.91;100.00
24858;BME280;12935;50.782;6.074;2023-02-22T08:38:20;99061.56;;;7.06;100.00
24858;BME280;12935;50.782;6.074;2023-02-22T08:40:47;99051.16;;;7.22;100.00
24858;BME280;12935;50.782;6.074;2023-02-22T08:43:13;99057.03;;;7.35;100.00
24858;BME280;12935;50.782;6.074;2023-02-22T08:45:39;99057.09;;;7.49;100.00
24858;BME280;12935;50.782;6.074;2023-02-22T08:48:04;99055.94;;;7.61;100.00
24858;BME280;12935;50.782;6.074;2023-02-22T08:50:31;99052.09;;;7.80;100.00
24858;BME280;12935;50.782;6.074;2023-02-22T08:53:02;99051.34;;;8.04;100.00
24858;BME280;12935;50.782;6.074;2023-02-22T08:55:31;99058.00;;;8.24;100.00
24858;BME280;12935;50.782;6.074;2023-02-22T08:57:57;99057.25;;;8.45;100.00
24858;BME280;12935;50.782;6.074;2023-02-22T09:00:23;99058.00;;;8.63;100.00
24858;BME280;12935;50.782;6.074;2023-02-22T09:02:54;99058.38;;;8.79;100.00
24858;BME280;12935;50.782;6.074;2023-02-22T09:05:20;99049.75;;;8.99;100.00
24858;BME280;12935;50.782;6.074;2023-02-22T09:07:46;99056.72;;;9.18;100.00
24858;BME280;12935;50.782;6.074;2023-02-22T09:10:21;99056.25;;;9.37;100.00
24858;BME280;12935;50.782;6.074;2023-02-22T09:12:49;99056.94;;;9.59;100.00
24858;BME280;12935;50.782;6.074;2023-02-22T09:15:14;99058.03;;;9.75;100.00
24858;BME280;12935;50.782;6.074;2023-02-22T09:17:40;99058.28;;;9.92;100.00
24858;BME280;12935;50.782;6.074;2023-02-22T09:20:06;99054.31;;;10.07;100.00
24858;BME280;12935;50.782;6.074;2023-02-22T09:22:32;99053.47;;;10.21;100.00
24858;BME280;12935;50.782;6.074;2023-02-22T09:24:58;99049.03;;;10.37;100.00
24858;BME280;12935;50.782;6.074;2023-02-22T09:27:23;99046.97;;;10.52;100.00
24858;BME280;12935;50.782;6.074;2023-02-22T09:29:52;99047.56;;;10.70;100.00
24858;BME280;12935;50.782;6.074;2023-02-22T09:32:18;99035.72;;;10.84;100.00
24858;BME280;12935;50.782;6.074;2023-02-22T09:34:46;99021.59;;;10.89;100.00
24858;BME280;12935;50.782;6.074;2023-02-22T09:37:12;99026.75;;;11.17;100.00
24858;BME280;12935;50.782;6.074;2023-02-22T09:39:38;99026.88;;;11.37;100.00
24858;BME280;12935;50.782;6.074;2023-02-22T09:42:23;99028.47;;;11.65;100.00
24858;BME280;12935;50.782;6.074;2023-02-22T09:45:01;99036.41;;;11.86;100.00
24858;BME280;12935;50.782;6.074;2023-02-22T09:47:49;99039.75;;;12.24;100.00
24858;BME280;12935;50.782;6.074;2023-02-22T09:50:21;99034.94;;;12.55;100.00
24858;BME280;12935;50.782;6.074;2023-02-22T09:53:06;99036.88;;;12.78;100.00
24858;BME280;12935;50.782;6.074;2023-02-22T09:55:41;99034.16;;;12.98;100.00
24858;BME280;12935;50.782;6.074;2023-02-22T10:00:45;99030.38;;;13.51;93.10
24858;BME280;12935;50.782;6.074;2023-02-22T10:06:14;99029.69;;;13.83;82.52
24858;BME280;12935;50.782;6.074;2023-02-22T10:08:41;99028.66;;;13.93;80.35
24858;BME280;12935;50.782;6.074;2023-02-22T10:14:00;99033.66;;;14.31;82.71
24858;BME280;12935;50.782;6.074;2023-02-22T10:22:10;99024.75;;;14.88;74.51
24858;BME280;12935;50.782;6.074;2023-02-22T10:27:18;99020.97;;;15.11;71.35
24858;BME280;12935;50.782;6.074;2023-02-22T10:29:54;99024.66;;;15.21;70.78
24858;BME280;12935;50.782;6.074;2023-02-22T10:32:27;99027.91;;;15.16;69.33
24858;BME280;12935;50.782;6.074;2023-02-22T10:34:53;99032.31;;;15.13;71.39
24858;BME280;12935;50.782;6.074;2023-02-22T10:37:29;99039.28;;;15.30;73.09
24858;BME280;12935;50.782;6.074;2023-02-22T10:40:09;99020.81;;;15.31;70.67
24858;BME280;12935;50.782;6.074;2023-02-22T10:42:35;99027.81;;;15.19;72.70
24858;BME280;12935;50.782;6.074;2023-02-22T10:45:01;99030.16;;;15.21;71.89
24858;BME280;12935;50.782;6.074;2023-02-22T10:47:26;99030.19;;;15.04;72.33
24858;BME280;12935;50.782;6.074;2023-02-22T10:49:56;99031.94;;;14.98;71.78
24858;BME280;12935;50.782;6.074;2023-02-22T10:52:28;99029.63;;;15.26;73.46
24858;BME280;12935;50.782;6.074;2023-02-22T10:54:55;99021.22;;;15.17;71.51
24858;BME280;12935;50.782;6.074;2023-02-22T10:57:25;99026.44;;;14.98;71.06
24858;BME280;12935;50.782;6.074;2023-02-22T10:59:52;99015.84;;;14.97;72.31
24858;BME280;12935;50.782;6.074;2023-02-22T11:02:26;99026.53;;;14.95;72.41
24858;BME280;12935;50.782;6.074;2023-02-22T11:04:55;99030.47;;;15.23;71.32
24858;BME280;12935;50.782;6.074;2023-02-22T11:07:30;99012.03;;;15.49;69.83
24858;BME280;12935;50.782;6.074;2023-02-22T11:09:58;99026.97;;;15.35;68.92
24858;BME280;12935;50.782;6.074;2023-02-22T11:14:53;99017.81;;;15.79;69.60
24858;BME280;12935;50.782;6.074;2023-02-22T11:17:38;99014.63;;;15.56;69.88
24858;BME280;12935;50.782;6.074;2023-02-22T11:20:05;99019.22;;;15.59;70.87
24858;BME280;12935;50.782;6.074;2023-02-22T11:22:38;99008.34;;;15.93;70.43
24858;BME280;12935;50.782;6.074;2023-02-22T11:25:05;99012.09;;;15.99;69.29
24858;BME280;12935;50.782;6.074;2023-02-22T11:27:40;99004.38;;;15.69;68.57
24858;BME280;12935;50.782;6.074;2023-02-22T11:30:15;99008.56;;;15.73;70.58
24858;BME280;12935;50.782;6.074;2023-02-22T11:32:44;99010.22;;;15.71;68.98
24858;BME280;12935;50.782;6.074;2023-02-22T11:37:52;99008.66;;;16.21;68.63
24858;BME280;12935;50.782;6.074;2023-02-22T11:40:20;99012.50;;;15.60;70.55
24858;BME280;12935;50.782;6.074;2023-02-22T11:43:25;99007.91;;;15.57;73.09
24858;BME280;12935;50.782;6.074;2023-02-22T11:46:03;99011.00;;;15.71;73.14
24858;BME280;12935;50.782;6.074;2023-02-22T11:48:31;99007.47;;;15.58;75.11
24858;BME280;12935;50.782;6.074;2023-02-22T11:56:42;99011.66;;;16.01;74.30
24858;BME280;12935;50.782;6.074;2023-02-22T12:01:56;99005.72;;;15.90;72.31
24858;BME280;12935;50.782;6.074;2023-02-22T12:04:57;99010.34;;;16.53;70.48
24858;BME280;12935;50.782;6.074;2023-02-22T12:07:38;99015.41;;;16.54;70.47
24858;BME280;12935;50.782;6.074;2023-02-22T12:10:25;99002.97;;;16.49;69.26
24858;BME280;12935;50.782;6.074;2023-02-22T12:21:20;99005.34;;;16.60;68.28
24858;BME280;12935;50.782;6.074;2023-02-22T12:24:13;99003.91;;;16.21;69.65
24858;BME280;12935;50.782;6.074;2023-02-22T12:26:48;99000.00;;;16.44;68.70
24858;BME280;12935;50.782;6.074;2023-02-22T12:29:35;98999.81;;;16.26;70.02
24858;BME280;12935;50.782;6.074;2023-02-22T12:32:15;98999.84;;;16.00;71.85
24858;BME280;12935;50.782;6.074;2023-02-22T12:34:46;99005.56;;;16.06;72.24
24858;BME280;12935;50.782;6.074;2023-02-22T12:37:33;99006.00;;;16.17;72.25
24858;BME280;12935;50.782;6.074;2023-02-22T12:45:28;99006.69;;;16.68;70.82
24858;BME280;12935;50.782;6.074;2023-02-22T12:48:06;99008.53;;;16.71;69.46
24858;BME280;12935;50.782;6.074;2023-02-22T12:50:42;99005.50;;;16.91;70.39
24858;BME280;12935;50.782;6.074;2023-02-22T12:53:23;99009.19;;;17.41;67.28
24858;BME280;12935;50.782;6.074;2023-02-22T12:55:54;99010.91;;;17.47;65.14
24858;BME280;12935;50.782;6.074;2023-02-22T12:58:28;99015.00;;;17.12;64.88
24858;BME280;12935;50.782;6.074;2023-02-22T13:01:14;99008.97;;;17.26;66.57
24858;BME280;12935;50.782;6.074;2023-02-22T13:03:42;98999.41;;;17.71;65.09
24858;BME280;12935;50.782;6.074;2023-02-22T13:12:26;98994.72;;;17.06;65.70
24858;BME280;12935;50.782;6.074;2023-02-22T13:23:24;99007.09;;;16.07;71.00
24858;BME280;12935;50.782;6.074;2023-02-22T13:25:49;98995.69;;;16.43;70.05
24858;BME280;12935;50.782;6.074;2023-02-22T13:34:19;98994.75;;;16.11;69.81
24858;BME280;12935;50.782;6.074;2023-02-22T13:47:51;99003.50;;;15.30;77.00
24858;BME280;12935;50.782;6.074;2023-02-22T13:52:52;98993.22;;;15.05;79.14
24858;BME280;12935;50.782;6.074;2023-02-22T13:55:29;98998.91;;;14.69;82.09
24858;BME280;12935;50.782;6.074;2023-02-22T13:58:03;99005.06;;;14.61;83.56
24858;BME280;12935;50.782;6.074;2023-02-22T14:00:39;99000.38;;;15.03;82.26
24858;BME280;12935;50.782;6.074;2023-02-22T14:10:44;98995.91;;;16.48;74.37
24858;BME280;12935;50.782;6.074;2023-02-22T14:13:10;98998.66;;;16.48;72.61
24858;BME280;12935;50.782;6.074;2023-02-22T14:18:32;98998.75;;;16.58;71.47
24858;BME280;12935;50.782;6.074;2023-02-22T14:21:06;99001.84;;;16.00;73.94
24858;BME280;12935;50.782;6.074;2023-02-22T14:23:38;98998.63;;;16.14;73.63
24858;BME280;12935;50.782;6.074;2023-02-22T14:26:28;99002.25;;;15.60;76.19
24858;BME280;12935;50.782;6.074;2023-02-22T14:31:32;98995.53;;;16.12;76.68
24858;BME280;12935;50.782;6.074;2023-02-22T14:34:08;99001.28;;;15.92;75.46
24858;BME280;12935;50.782;6.074;2023-02-22T14:39:43;98992.50;;;15.72;78.41
24858;BME280;12935;50.782;6.074;2023-02-22T14:42:17;98994.38;;;15.33;81.19
24858;BME280;12935;50.782;6.074;2023-02-22T14:47:43;99010.97;;;15.17;82.51
24858;BME280;12935;50.782;6.074;2023-02-22T14:50:17;99004.03;;;15.13;83.56
24858;BME280;12935;50.782;6.074;2023-02-22T14:52:55;99015.00;;;14.71;86.04
24858;BME280;12935;50.782;6.074;2023-02-22T14:55:24;99009.44;;;14.58;86.98
24858;BME280;12935;50.782;6.074;2023-02-22T14:58:06;99011.59;;;14.51;88.15
24858;BME280;12935;50.782;6.074;2023-02-22T15:00:41;99010.13;;;14.30;90.61
24858;BME280;12935;50.782;6.074;2023-02-22T15:03:30;99013.81;;;14.23;90.75
24858;BME280;12935;50.782;6.074;2023-02-22T15:06:20;99016.41;;;13.98;92.62
24858;BME280;12935;50.782;6.074;2023-02-22T15:08:46;99017.72;;;13.74;96.04
24858;BME280;12935;50.782;6.074;2023-02-22T15:11:25;99015.53;;;13.49;99.11
24858;BME280;12935;50.782;6.074;2023-02-22T15:13:55;99006.19;;;13.26;100.00
24858;BME280;12935;50.782;6.074;2023-02-22T15:16:22;99015.50;;;13.09;100.00
24858;BME280;12935;50.782;6.074;2023-02-22T15:18:51;99017.84;;;13.11;100.00
24858;BME280;12935;50.782;6.074;2023-02-22T15:21:20;99019.13;;;13.06;100.00
24858;BME280;12935;50.782;6.074;2023-02-22T15:26:22;99016.81;;;13.05;100.00